Time;durP1;ratioP1;P1;durP2;ratioP2;P2;SDS_P1;SDS_P2;PMS_P1;PMS_P2;Temp;Humidity;BMP_temperature;BMP_pressure;BME280_temperature;BME280_humidity;BME280_pressure;Samples;Min_cycle;Max_cycle;Signal;HPM_P1;HPM_P2
2022/11/10 00:00:05;;;;;;;6.07;1.00;;;;;;;4.50;100.00;100863.72;5057798;28;20025;-60
2022/11/10 00:02:31;;;;;;;1.85;0.93;;;;;;;4.45;100.00;100876.44;5054068;28;20119;-58
2022/11/10 00:04:56;;;;;;;0.55;0.55;;;;;;;4.48;100.00;100870.91;5060813;28;20534;-59
2022/11/10 00:07:26;;;;;;;4.07;0.80;;;;;;;4.48;100.00;100865.66;5050048;28;20086;-60
2022/11/10 00:09:54;;;;;;;2.72;1.15;;;;;;;4.46;100.00;100867.59;5055222;28;20017;-59
2022/11/10 00:12:21;;;;;;;1.92;0.47;;;;;;;4.45;100.00;100869.41;5052516;28;20366;-58
2022/11/10 00:17:33;;;;;;;0.40;0.40;;;;;;;4.54;100.00;100881.69;5054031;28;20085;-59
2022/11/10 00:19:59;;;;;;;2.33;1.27;;;;;;;4.49;100.00;100883.06;5050663;28;20025;-60
2022/11/10 00:22:25;;;;;;;5.70;1.60;;;;;;;4.42;100.00;100882.81;5055288;28;20505;-60
2022/11/10 00:24:50;;;;;;;1.23;0.28;;;;;;;4.32;100.00;100879.38;5052122;28;20025;-60
2022/11/10 00:27:15;;;;;;;1.05;0.95;;;;;;;4.31;100.00;100880.31;5048186;28;20064;-60
2022/11/10 00:29:41;;;;;;;1.48;0.40;;;;;;;4.65;100.00;100879.88;5056329;28;20064;-60
2022/11/10 00:32:07;;;;;;;6.13;1.95;;;;;;;5.15;100.00;100893.50;5049460;28;20040;-58
2022/11/10 00:34:32;;;;;;;3.22;1.45;;;;;;;5.38;100.00;100886.03;5052323;28;20154;-56
2022/11/10 00:36:57;;;;;;;5.50;0.60;;;;;;;5.42;100.00;100887.41;5057052;28;20178;-57
2022/11/10 00:39:24;;;;;;;8.52;0.63;;;;;;;5.74;100.00;100894.00;5047393;28;20094;-58
2022/11/10 00:41:50;;;;;;;7.60;1.08;;;;;;;5.82;100.00;100899.31;5038226;28;20028;-60
2022/11/10 00:44:15;;;;;;;10.30;1.42;;;;;;;5.90;100.00;100912.56;5046448;28;20044;-58
2022/11/10 00:46:40;;;;;;;2.17;0.45;;;;;;;5.97;100.00;100912.00;5049704;28;20036;-59
2022/11/10 00:49:06;;;;;;;0.95;0.85;;;;;;;5.96;100.00;100910.34;5048407;28;20025;-60
2022/11/10 00:51:31;;;;;;;15.90;0.77;;;;;;;6.05;100.00;100914.72;5048224;28;20490;-57
2022/11/10 00:53:57;;;;;;;4.68;1.10;;;;;;;6.10;100.00;100902.75;5052818;28;20474;-60
2022/11/10 00:56:23;;;;;;;5.50;1.27;;;;;;;6.19;100.00;100911.53;5051203;28;20017;-59
2022/11/10 00:58:49;;;;;;;8.85;1.23;;;;;;;6.36;100.00;100917.78;5051266;28;20455;-59
2022/11/10 01:01:16;;;;;;;6.68;0.60;;;;;;;6.45;100.00;100919.47;5057092;28;20040;-57
2022/11/10 01:03:41;;;;;;;4.90;1.10;;;;;;;6.50;100.00;100934.81;5054922;28;20099;-53
2022/11/10 01:06:09;;;;;;;8.88;0.57;;;;;;;6.49;100.00;100936.63;5060620;28;20170;-54
2022/11/10 01:08:35;;;;;;;1.75;0.30;;;;;;;6.53;100.00;100940.63;5055668;28;20033;-54
2022/11/10 01:11:02;;;;;;;9.30;0.82;;;;;;;6.61;100.00;100941.66;5054170;28;20098;-59
2022/11/10 01:13:28;;;;;;;4.88;1.75;;;;;;;6.60;100.00;100946.09;5058255;28;20033;-57
2022/11/10 01:15:54;;;;;;;9.25;0.55;;;;;;;6.65;100.00;100935.91;5049349;28;20029;-56
2022/11/10 01:18:19;;;;;;;2.30;0.98;;;;;;;6.65;100.00;100949.09;5047045;28;20060;-58
2022/11/10 01:20:50;;;;;;;5.65;1.48;;;;;;;6.65;100.00;100951.72;5028069;28;20029;-57
2022/11/10 01:23:15;;;;;;;6.53;2.35;;;;;;;6.63;100.00;100951.06;5050537;28;20427;-60
2022/11/10 01:25:41;;;;;;;6.75;0.75;;;;;;;6.61;100.00;100958.31;5051345;28;20040;-60
2022/11/10 01:28:06;;;;;;;5.07;0.70;;;;;;;6.65;100.00;100964.91;5048171;28;20044;-57
2022/11/10 01:30:31;;;;;;;9.27;2.05;;;;;;;6.71;100.00;100958.19;5048963;28;20132;-58
2022/11/10 01:32:57;;;;;;;11.10;1.05;;;;;;;6.73;100.00;100950.97;5054542;28;20134;-55
2022/11/10 01:35:22;;;;;;;3.00;0.77;;;;;;;6.73;100.00;100961.50;5048362;28;20048;-57
2022/11/10 01:37:50;;;;;;;6.47;1.55;;;;;;;6.75;100.00;100957.72;5053121;28;20392;-61
2022/11/10 01:40:15;;;;;;;17.40;1.55;;;;;;;6.83;100.00;100961.41;5015985;28;20024;-60
2022/11/10 01:42:50;;;;;;;10.85;1.90;;;;;;;6.85;100.00;100975.28;5051938;28;20032;-59
2022/11/10 01:46:04;;;;;;;9.63;0.98;;;;;;;6.90;100.00;100978.28;5035309;28;20059;-56
2022/11/10 01:48:36;;;;;;;9.68;1.88;;;;;;;6.84;100.00;100973.59;5041400;28;20095;-53
2022/11/10 01:51:25;;;;;;;14.40;1.08;;;;;;;6.84;100.00;100977.09;5047901;28;20033;-59
2022/11/10 01:53:58;;;;;;;6.30;0.65;;;;;;;6.98;100.00;100986.22;5048576;28;20098;-53
2022/11/10 01:56:27;;;;;;;3.00;1.88;;;;;;;6.97;100.00;100989.84;5059211;28;20031;-55
2022/11/10 01:58:57;;;;;;;4.32;0.70;;;;;;;7.03;100.00;100988.41;5056759;28;20462;-58
2022/11/10 02:01:23;;;;;;;5.63;0.73;;;;;;;6.99;100.00;100993.97;5035003;28;20052;-61
2022/11/10 02:03:52;;;;;;;11.43;2.03;;;;;;;6.93;100.00;100985.88;5049046;28;20035;-59
2022/11/10 02:06:21;;;;;;;11.85;2.92;;;;;;;6.85;100.00;100993.72;5059352;28;20041;-59
2022/11/10 02:08:48;;;;;;;7.20;0.77;;;;;;;6.76;100.00;100992.81;5062674;28;20039;-57
2022/11/10 02:11:14;;;;;;;3.47;0.60;;;;;;;6.69;100.00;100995.25;5056570;28;20035;-58
2022/11/10 02:13:40;;;;;;;7.95;0.77;;;;;;;6.72;100.00;101002.84;5058477;28;20165;-59
2022/11/10 02:16:07;;;;;;;8.20;0.45;;;;;;;6.76;100.00;101006.84;5059506;28;20111;-53
2022/11/10 02:18:32;;;;;;;12.73;2.60;;;;;;;6.70;100.00;101004.81;5050909;28;20041;-58
2022/11/10 02:20:58;;;;;;;6.28;0.65;;;;;;;6.72;100.00;101008.13;5056135;28;20036;-58
2022/11/10 02:23:29;;;;;;;11.73;1.63;;;;;;;6.74;100.00;101006.16;5051718;28;20048;-57
2022/11/10 02:25:54;;;;;;;5.22;0.30;;;;;;;6.64;100.00;100999.34;5048341;28;20028;-59
2022/11/10 02:28:20;;;;;;;2.78;1.13;;;;;;;6.61;100.00;100991.72;5057331;28;20064;-56
2022/11/10 02:30:45;;;;;;;4.03;0.55;;;;;;;6.58;100.00;100999.94;5059083;28;20031;-59
2022/11/10 02:33:11;;;;;;;1.95;0.55;;;;;;;6.58;100.00;100995.47;5059607;28;20031;-58
2022/11/10 02:35:36;;;;;;;7.32;1.20;;;;;;;6.62;100.00;101007.38;5049721;28;20084;-60
2022/11/10 02:38:01;;;;;;;2.70;1.08;;;;;;;6.50;100.00;101004.13;5052503;28;20060;-58
2022/11/10 02:40:27;;;;;;;3.55;0.35;;;;;;;6.36;100.00;101004.69;5054006;28;20090;-56
2022/11/10 02:42:52;;;;;;;0.70;0.10;;;;;;;6.38;100.00;101000.09;5042320;28;20116;-59
2022/11/10 02:45:17;;;;;;;0.80;0.10;;;;;;;6.40;100.00;101006.06;5050593;28;20449;-55
2022/11/10 02:47:43;;;;;;;5.45;0.50;;;;;;;6.36;100.00;101002.06;5058495;28;20091;-57
2022/11/10 02:50:08;;;;;;;7.22;1.40;;;;;;;6.37;100.00;101010.78;5058966;28;20032;-55
2022/11/10 02:52:34;;;;;;;7.65;0.85;;;;;;;6.26;100.00;101009.19;5054014;28;20024;-57
2022/11/10 02:54:59;;;;;;;6.90;2.05;;;;;;;6.21;100.00;101009.63;5052349;28;20021;-52
2022/11/10 02:57:24;;;;;;;8.80;1.85;;;;;;;6.22;100.00;101010.47;5052121;28;20043;-58
2022/11/10 02:59:50;;;;;;;16.45;1.48;;;;;;;6.16;100.00;101006.63;5061437;28;20025;-55
2022/11/10 03:02:15;;;;;;;1.58;0.93;;;;;;;6.06;100.00;101009.31;5063505;28;20028;-58
2022/11/10 03:04:41;;;;;;;3.72;0.38;;;;;;;6.07;100.00;101007.53;5057586;28;20025;-57
2022/11/10 03:07:06;;;;;;;2.42;0.80;;;;;;;6.08;100.00;101009.19;5056586;28;20490;-60
2022/11/10 03:09:31;;;;;;;1.77;0.22;;;;;;;6.05;100.00;101004.22;5058413;28;20036;-57
2022/11/10 03:11:57;;;;;;;2.67;0.03;;;;;;;6.26;100.00;101007.38;5040582;28;20441;-58
2022/11/10 03:14:22;;;;;;;4.35;0.17;;;;;;;6.24;100.00;101013.78;5055335;28;20059;-55
2022/11/10 03:16:47;;;;;;;1.83;0.45;;;;;;;6.17;100.00;101018.84;5060663;28;21107;-60
2022/11/10 03:19:13;;;;;;;6.25;1.08;;;;;;;6.06;100.00;101014.59;5059246;28;20508;-59
2022/11/10 03:21:38;;;;;;;7.20;0.60;;;;;;;6.07;100.00;101015.44;5040369;28;20028;-58
2022/11/10 03:24:04;;;;;;;4.68;1.45;;;;;;;6.17;100.00;101018.84;5053088;28;20131;-60
2022/11/10 03:26:29;;;;;;;3.22;0.40;;;;;;;6.33;100.00;101023.44;5057529;28;20091;-55
2022/11/10 03:28:54;;;;;;;6.22;0.80;;;;;;;6.34;100.00;101020.63;5063358;28;20056;-59
2022/11/10 03:31:20;;;;;;;6.78;0.73;;;;;;;6.44;100.00;101027.63;5053803;28;20033;-60
2022/11/10 03:33:45;;;;;;;5.80;1.73;;;;;;;6.59;100.00;101031.41;5062459;28;20820;-55
2022/11/10 03:36:10;;;;;;;9.77;1.08;;;;;;;6.72;100.00;101038.94;5057601;28;20108;-54
2022/11/10 03:38:36;;;;;;;4.80;0.93;;;;;;;6.88;100.00;101038.22;5050904;28;20075;-56
2022/11/10 03:41:01;;;;;;;5.18;0.70;;;;;;;7.01;100.00;101043.09;5066046;28;20032;-57
2022/11/10 03:43:26;;;;;;;8.30;1.95;;;;;;;7.14;100.00;101033.78;5054778;28;20115;-59
2022/11/10 03:45:52;;;;;;;5.22;1.10;;;;;;;7.32;100.00;101028.47;5039534;28;20044;-58
2022/11/10 03:48:17;;;;;;;2.45;1.10;;;;;;;7.49;100.00;101041.75;5064037;28;20028;-59
2022/11/10 03:50:42;;;;;;;9.35;2.35;;;;;;;7.57;100.00;101047.06;5055811;28;20419;-60
2022/11/10 03:53:08;;;;;;;7.38;1.60;;;;;;;7.67;100.00;101050.41;5052136;28;20024;-59
2022/11/10 03:55:33;;;;;;;6.43;0.40;;;;;;;7.79;100.00;101066.78;5059936;28;20029;-56
2022/11/10 03:58:03;;;;;;;7.15;0.88;;;;;;;7.93;100.00;101065.38;5060225;28;20033;-54
2022/11/10 04:00:28;;;;;;;1.17;0.38;;;;;;;7.93;100.00;101074.13;5051949;28;20135;-56
2022/11/10 04:02:54;;;;;;;14.18;2.65;;;;;;;8.04;100.00;101078.28;5055726;28;20132;-59
2022/11/10 04:10:56;;;;;;;7.40;1.30;;;;;;;8.17;100.00;101083.94;5054921;28;20106;-59
2022/11/10 04:16:05;;;;;;;12.27;1.70;;;;;;;8.25;100.00;101091.06;5049560;28;22056;-54
2022/11/10 04:18:31;;;;;;;9.90;1.05;;;;;;;8.32;100.00;101096.53;5056715;28;20496;-59
2022/11/10 04:20:58;;;;;;;5.80;1.00;;;;;;;8.36;100.00;101101.31;5063603;28;20094;-59
2022/11/10 04:23:27;;;;;;;10.30;1.48;;;;;;;8.35;100.00;101110.25;5052399;28;20033;-60
2022/11/10 04:28:48;;;;;;;;;;;;;;;8.50;100.00;101087.53;5055507;28;20520;-58
2022/11/10 04:31:14;;;;;;;4.78;0.85;;;;;;;8.48;100.00;101091.31;5055136;28;19917;-56
2022/11/10 04:33:40;;;;;;;7.57;0.68;;;;;;;8.52;100.00;101096.13;5057921;28;20040;-56
2022/11/10 04:36:08;;;;;;;7.90;0.85;;;;;;;8.56;100.00;101088.69;5055919;28;20029;-55
2022/11/10 04:38:33;;;;;;;0.68;0.43;;;;;;;8.60;100.00;101083.91;5054480;28;20029;-53
2022/11/10 04:40:59;;;;;;;5.57;1.48;;;;;;;8.67;100.00;101090.19;5057007;28;20031;-58
2022/11/10 04:43:24;;;;;;;5.25;1.30;;;;;;;8.73;100.00;101086.91;5036574;28;20020;-54
2022/11/10 04:45:49;;;;;;;5.15;1.45;;;;;;;8.79;100.00;101088.88;5055755;28;20024;-56
2022/11/10 04:48:15;;;;;;;3.10;0.20;;;;;;;8.81;100.00;101092.19;5058063;28;20492;-53
2022/11/10 04:50:40;;;;;;;13.05;1.10;;;;;;;8.83;100.00;101084.94;5059274;28;20101;-58
2022/11/10 04:53:05;;;;;;;5.72;1.10;;;;;;;8.86;100.00;101095.16;5053276;28;20045;-57
2022/11/10 04:55:31;;;;;;;4.22;0.60;;;;;;;8.89;100.00;101099.31;5037897;28;20424;-60
2022/11/10 04:57:56;;;;;;;4.68;0.50;;;;;;;9.04;100.00;101092.34;5053838;28;20040;-59
2022/11/10 05:00:22;;;;;;;9.23;0.88;;;;;;;9.16;100.00;101103.41;5052214;28;20118;-60
2022/11/10 05:02:47;;;;;;;2.88;0.35;;;;;;;9.20;100.00;101106.56;5057883;28;20049;-60
2022/11/10 05:05:12;;;;;;;13.85;0.65;;;;;;;9.23;100.00;101117.63;5040974;28;20367;-59
2022/11/10 05:07:38;;;;;;;8.55;0.82;;;;;;;9.31;100.00;101125.56;5052975;28;20037;-58
2022/11/10 05:10:03;;;;;;;11.93;3.30;;;;;;;9.38;100.00;101128.38;5052133;28;20033;-60
2022/11/10 05:12:29;;;;;;;3.92;0.40;;;;;;;9.43;100.00;101125.25;5058638;28;20036;-61
2022/11/10 05:14:54;;;;;;;3.58;0.68;;;;;;;9.46;100.00;101123.06;5055585;28;20036;-60
2022/11/10 05:17:20;;;;;;;4.90;1.08;;;;;;;9.51;100.00;101130.53;5052130;28;20091;-61
2022/11/10 05:19:46;;;;;;;0.88;0.60;;;;;;;9.56;100.00;101133.50;5056772;28;20028;-62
2022/11/10 05:22:11;;;;;;;6.35;0.35;;;;;;;9.59;100.00;101133.97;5055306;28;20033;-59
2022/11/10 05:24:37;;;;;;;3.95;1.13;;;;;;;9.67;100.00;101135.78;5062858;28;20040;-59
2022/11/10 05:27:02;;;;;;;5.65;1.27;;;;;;;9.73;100.00;101135.13;5048017;28;20033;-58
2022/11/10 05:29:28;;;;;;;1.42;0.00;;;;;;;9.75;100.00;101132.28;5055611;28;20045;-60
2022/11/10 05:31:53;;;;;;;8.15;1.35;;;;;;;9.74;100.00;101138.59;5051391;28;20021;-61
2022/11/10 05:34:18;;;;;;;3.28;0.20;;;;;;;9.75;100.00;101150.81;5058643;28;20551;-59
2022/11/10 05:36:44;;;;;;;3.95;0.32;;;;;;;9.76;100.00;101140.06;5061785;28;20036;-60
2022/11/10 05:39:09;;;;;;;1.55;0.55;;;;;;;9.76;100.00;101129.47;5033360;28;20028;-61
2022/11/10 05:41:34;;;;;;;12.90;0.60;;;;;;;9.79;100.00;101130.97;5064623;28;20056;-58
2022/11/10 05:44:00;;;;;;;3.88;0.95;;;;;;;9.83;100.00;101130.44;5052275;28;20504;-56
2022/11/10 05:46:25;;;;;;;0.85;0.22;;;;;;;9.86;100.00;101123.13;5047316;28;20032;-55
2022/11/10 05:48:50;;;;;;;6.82;1.00;;;;;;;9.85;100.00;101122.31;5041491;28;20032;-58
2022/11/10 05:51:16;;;;;;;2.80;0.47;;;;;;;9.88;100.00;101121.16;5037462;28;20036;-58
2022/11/10 05:53:41;;;;;;;7.43;0.75;;;;;;;9.93;100.00;101124.13;5051214;28;20442;-55
2022/11/10 05:56:06;;;;;;;3.20;0.35;;;;;;;9.93;100.00;101118.81;5057085;28;20470;-56
2022/11/10 05:58:32;;;;;;;5.90;0.40;;;;;;;9.93;100.00;101113.53;5059321;28;20111;-55
2022/11/10 06:00:57;;;;;;;9.00;0.60;;;;;;;9.95;100.00;101117.66;5053580;28;20548;-57
2022/11/10 06:03:23;;;;;;;5.38;1.55;;;;;;;9.94;100.00;101105.41;5051435;28;20067;-56
2022/11/10 06:05:48;;;;;;;3.28;0.08;;;;;;;9.95;100.00;101111.53;5052299;28;20394;-58
2022/11/10 06:08:14;;;;;;;7.75;1.50;;;;;;;9.93;100.00;101110.88;5052055;28;20025;-59
2022/11/10 06:10:40;;;;;;;7.53;0.20;;;;;;;9.91;100.00;101111.03;5047694;28;20110;-61
2022/11/10 06:13:05;;;;;;;3.33;0.28;;;;;;;9.94;100.00;101099.25;5067074;28;20036;-56
2022/11/10 06:15:31;;;;;;;8.05;0.47;;;;;;;9.94;100.00;101099.25;5050732;28;20044;-61
2022/11/10 06:17:57;;;;;;;6.72;0.93;;;;;;;9.96;100.00;101103.41;5050955;28;20037;-62
2022/11/10 06:20:23;;;;;;;3.40;0.55;;;;;;;9.96;100.00;101108.69;5051502;28;20445;-59
2022/11/10 06:23:05;;;;;;;5.78;0.95;;;;;;;9.98;100.00;101106.69;5053893;28;20072;-60
2022/11/10 06:25:32;;;;;;;6.00;0.77;;;;;;;10.00;100.00;101111.84;5064630;28;20037;-60
2022/11/10 06:27:58;;;;;;;17.00;1.38;;;;;;;9.96;100.00;101116.63;5047360;28;20052;-60
2022/11/10 06:30:25;;;;;;;2.55;0.60;;;;;;;9.97;100.00;101105.06;5056535;28;20095;-61
2022/11/10 06:32:51;;;;;;;1.92;0.52;;;;;;;9.98;100.00;101111.19;5052615;28;20025;-60
2022/11/10 06:35:17;;;;;;;4.03;0.75;;;;;;;9.99;100.00;101120.78;5032271;28;20036;-60
2022/11/10 06:37:43;;;;;;;5.30;0.22;;;;;;;9.97;100.00;101125.44;5058382;28;20043;-60
2022/11/10 06:40:12;;;;;;;4.97;0.55;;;;;;;9.99;100.00;101120.78;5038834;28;21116;-61
2022/11/10 06:42:37;;;;;;;10.10;0.45;;;;;;;10.03;100.00;101119.44;5051656;28;20029;-60
2022/11/10 06:45:03;;;;;;;8.48;2.10;;;;;;;10.02;100.00;101134.53;5052233;28;20060;-58
2022/11/10 06:47:29;;;;;;;1.92;0.40;;;;;;;10.09;100.00;101136.47;5060649;28;20496;-60
2022/11/10 06:49:54;;;;;;;3.50;1.40;;;;;;;10.12;100.00;101144.91;5053790;28;20028;-60
2022/11/10 06:52:20;;;;;;;6.43;1.17;;;;;;;10.13;100.00;101151.88;5058381;28;20078;-54
2022/11/10 06:54:45;;;;;;;4.45;0.90;;;;;;;10.12;100.00;101142.28;5059649;28;20035;-57
2022/11/10 06:57:10;;;;;;;2.72;0.10;;;;;;;10.14;100.00;101144.72;5062898;28;20028;-58
2022/11/10 06:59:35;;;;;;;3.03;0.88;;;;;;;10.12;100.00;101138.78;5053693;28;20335;-60
2022/11/10 07:02:01;;;;;;;4.68;0.80;;;;;;;10.12;100.00;101126.38;5060131;28;20124;-58
2022/11/10 07:04:27;;;;;;;1.17;0.38;;;;;;;10.16;100.00;101135.63;5057530;28;20060;-60
2022/11/10 07:06:52;;;;;;;5.57;0.35;;;;;;;10.15;100.00;101143.75;5053727;28;20064;-61
2022/11/10 07:09:18;;;;;;;8.20;0.80;;;;;;;10.12;100.00;101139.63;5054463;28;20032;-56
2022/11/10 07:11:43;;;;;;;6.60;0.73;;;;;;;10.11;100.00;101132.66;5055945;28;20063;-60
2022/11/10 07:14:09;;;;;;;2.78;0.75;;;;;;;10.10;100.00;101149.56;5054916;28;20359;-61
2022/11/10 07:16:35;;;;;;;6.05;0.68;;;;;;;10.05;100.00;101141.28;5057648;28;20424;-60
2022/11/10 07:19:00;;;;;;;9.88;2.35;;;;;;;9.93;100.00;101138.19;5053167;28;20028;-58
2022/11/10 07:21:25;;;;;;;2.85;0.90;;;;;;;9.87;100.00;101138.88;5049679;28;20040;-54
2022/11/10 07:23:51;;;;;;;10.05;0.40;;;;;;;9.80;100.00;101138.72;5053013;28;20078;-60
2022/11/10 07:26:16;;;;;;;4.28;0.57;;;;;;;9.82;100.00;101128.78;5053401;28;20165;-60
2022/11/10 07:28:41;;;;;;;6.18;0.30;;;;;;;9.83;100.00;101138.41;5053961;28;20474;-58
2022/11/10 07:31:07;;;;;;;4.97;0.40;;;;;;;9.91;100.00;101142.00;5056444;28;20063;-55
2022/11/10 07:33:33;;;;;;;5.70;1.67;;;;;;;9.94;100.00;101144.28;5062414;28;20043;-60
2022/11/10 07:36:02;;;;;;;5.65;0.60;;;;;;;10.01;100.00;101139.97;5053851;28;20029;-58
2022/11/10 07:38:28;;;;;;;7.05;1.08;;;;;;;10.03;100.00;101145.94;5035563;28;20537;-56
2022/11/10 07:40:54;;;;;;;3.33;0.45;;;;;;;10.00;100.00;101146.28;5037870;28;20028;-57
2022/11/10 07:43:22;;;;;;;3.85;1.23;;;;;;;9.98;100.00;101148.28;5056574;28;20060;-60
2022/11/10 07:45:51;;;;;;;7.03;1.45;;;;;;;9.94;100.00;101153.09;5053618;28;20029;-60
2022/11/10 07:48:17;;;;;;;5.15;0.68;;;;;;;9.87;100.00;101156.59;5036012;28;20024;-58
2022/11/10 07:50:44;;;;;;;7.53;0.20;;;;;;;9.81;100.00;101163.41;5036819;28;20043;-59
2022/11/10 07:53:14;;;;;;;3.70;0.55;;;;;;;9.82;100.00;101170.34;5061125;28;20036;-57
2022/11/10 07:55:42;;;;;;;4.63;0.40;;;;;;;9.84;100.00;101173.66;5054447;28;20079;-58
2022/11/10 07:58:09;;;;;;;8.27;0.38;;;;;;;9.96;100.00;101180.22;5058075;28;20036;-59
2022/11/10 08:00:36;;;;;;;3.00;0.40;;;;;;;10.08;100.00;101175.41;5058139;28;20086;-60
2022/11/10 08:03:13;;;;;;;4.72;0.40;;;;;;;10.21;100.00;101186.28;5038864;28;20113;-54
2022/11/10 08:05:39;;;;;;;8.25;1.27;;;;;;;10.27;100.00;101190.06;5055315;28;20100;-55
2022/11/10 08:08:05;;;;;;;9.60;0.95;;;;;;;10.33;100.00;101189.41;5055959;28;20111;-59
2022/11/10 08:10:31;;;;;;;7.88;0.85;;;;;;;10.40;100.00;101192.19;5031829;28;20036;-58
2022/11/10 08:12:59;;;;;;;4.25;0.45;;;;;;;10.47;100.00;101201.13;5056608;28;20037;-56
2022/11/10 08:15:26;;;;;;;7.57;0.45;;;;;;;10.52;100.00;101195.31;5059782;28;20500;-58
2022/11/10 08:17:57;;;;;;;0.88;0.40;;;;;;;10.57;100.00;101191.13;5058082;28;20028;-57
2022/11/10 08:20:23;;;;;;;7.50;1.42;;;;;;;10.59;100.00;101190.97;5058590;28;20100;-57
2022/11/10 08:22:48;;;;;;;11.25;0.90;;;;;;;10.62;100.00;101198.56;5056782;28;20569;-58
2022/11/10 08:25:13;;;;;;;5.93;1.13;;;;;;;10.64;100.00;101202.69;5066881;28;20036;-58
2022/11/10 08:27:39;;;;;;;7.50;0.63;;;;;;;10.69;100.00;101195.06;5055744;28;20020;-54
2022/11/10 08:30:05;;;;;;;7.25;0.50;;;;;;;10.76;100.00;101202.28;5057592;28;20119;-60
2022/11/10 08:32:30;;;;;;;2.97;1.13;;;;;;;10.82;100.00;101205.09;5050055;28;20037;-58
2022/11/10 08:34:56;;;;;;;2.97;0.35;;;;;;;10.87;100.00;101215.19;5040783;28;20363;-61
2022/11/10 08:37:21;;;;;;;5.13;1.40;;;;;;;10.91;100.00;101208.50;5052197;28;20108;-60
2022/11/10 08:39:46;;;;;;;5.65;1.10;;;;;;;10.96;100.00;101226.56;5058807;28;20025;-61
2022/11/10 08:42:12;;;;;;;4.03;1.05;;;;;;;10.99;100.00;101216.41;5063813;28;20032;-56
2022/11/10 08:44:37;;;;;;;2.58;0.60;;;;;;;11.03;100.00;101212.41;5036653;28;20033;-59
2022/11/10 08:47:02;;;;;;;7.22;0.55;;;;;;;11.08;100.00;101218.03;5046741;28;20047;-58
2022/11/10 08:49:28;;;;;;;4.10;0.55;;;;;;;11.15;100.00;101215.47;5063959;28;20033;-56
2022/11/10 08:51:53;;;;;;;10.27;2.08;;;;;;;11.26;100.00;101222.22;5046279;28;20108;-58
2022/11/10 08:54:18;;;;;;;3.22;0.65;;;;;;;11.30;100.00;101211.03;5044564;28;20369;-59
2022/11/10 08:56:44;;;;;;;3.00;0.47;;;;;;;11.36;100.00;101204.22;5055163;28;20095;-60
2022/11/10 08:59:09;;;;;;;3.95;0.30;;;;;;;11.39;100.00;101201.22;5045304;28;20028;-60
2022/11/10 09:01:35;;;;;;;2.03;0.20;;;;;;;11.44;100.00;101204.16;5065353;28;20046;-57
2022/11/10 09:04:00;;;;;;;5.18;0.77;;;;;;;11.45;100.00;101213.75;5060967;28;20027;-59
2022/11/10 09:06:25;;;;;;;4.63;0.38;;;;;;;11.44;100.00;101217.44;5056168;28;20048;-60
2022/11/10 09:08:51;;;;;;;2.03;0.43;;;;;;;11.46;100.00;101214.56;5052282;28;20044;-56
2022/11/10 09:11:16;;;;;;;6.43;1.10;;;;;;;11.44;100.00;101216.63;5060261;28;20040;-62
2022/11/10 09:13:41;;;;;;;4.05;0.90;;;;;;;11.45;100.00;101216.41;5058448;28;20040;-60
2022/11/10 09:16:07;;;;;;;5.28;1.38;;;;;;;11.48;100.00;101215.22;5062045;28;20040;-57
2022/11/10 09:18:32;;;;;;;3.13;1.75;;;;;;;11.55;100.00;101227.63;5052176;28;20028;-58
2022/11/10 09:20:58;;;;;;;2.58;0.60;;;;;;;11.57;100.00;101220.31;5054515;28;20486;-61
2022/11/10 09:23:23;;;;;;;3.13;1.70;;;;;;;11.57;100.00;101222.13;5055286;28;20042;-59
2022/11/10 09:25:54;;;;;;;3.10;0.82;;;;;;;11.63;100.00;101223.25;5058083;28;20084;-58
2022/11/10 09:28:21;;;;;;;4.00;0.90;;;;;;;11.65;100.00;101226.56;5052316;28;20457;-60
2022/11/10 09:30:48;;;;;;;7.03;0.52;;;;;;;11.66;100.00;101228.19;5042574;28;20390;-60
2022/11/10 09:33:13;;;;;;;8.60;1.20;;;;;;;11.63;100.00;101218.75;5054367;28;20394;-60
2022/11/10 09:35:39;;;;;;;2.15;0.10;;;;;;;11.64;100.00;101228.38;5064269;28;20039;-57
2022/11/10 09:38:05;;;;;;;5.38;0.15;;;;;;;11.66;100.00;101228.19;5056616;28;20049;-60
2022/11/10 09:40:47;;;;;;;4.03;0.82;;;;;;;11.69;100.00;101233.97;5058261;28;20426;-61
2022/11/10 09:43:23;;;;;;;3.97;1.70;;;;;;;11.70;100.00;101229.50;5046583;28;20032;-59
2022/11/10 09:45:51;;;;;;;8.18;0.82;;;;;;;11.72;100.00;101227.47;5062970;28;20044;-62
2022/11/10 09:48:24;;;;;;;2.25;0.70;;;;;;;11.73;100.00;101221.16;5051857;28;20082;-60
2022/11/10 09:50:55;;;;;;;3.00;0.22;;;;;;;11.76;100.00;101224.28;5062037;28;20029;-59
2022/11/10 09:53:33;;;;;;;3.92;0.75;;;;;;;11.81;100.00;101225.56;5054583;28;20383;-57
2022/11/10 09:56:02;;;;;;;0.95;0.15;;;;;;;11.86;100.00;101225.84;5058149;28;20349;-58
2022/11/10 09:58:40;;;;;;;7.78;1.85;;;;;;;11.92;100.00;101228.63;5058178;28;20033;-58
2022/11/10 10:01:28;;;;;;;3.25;1.13;;;;;;;11.96;100.00;101237.91;5054414;28;20028;-62
2022/11/10 10:04:04;;;;;;;7.25;1.23;;;;;;;12.02;100.00;101241.66;5030688;28;20029;-55
2022/11/10 10:06:38;;;;;;;2.88;1.30;;;;;;;12.11;100.00;101248.56;5055742;28;20415;-60
2022/11/10 10:09:22;;;;;;;3.30;1.08;;;;;;;12.19;100.00;101240.47;5063662;28;20027;-62
2022/11/10 10:11:58;;;;;;;8.82;1.08;;;;;;;12.27;100.00;101242.22;5055236;28;20035;-60
2022/11/10 10:14:56;;;;;;;2.67;0.20;;;;;;;12.39;100.00;101235.44;5061129;28;20089;-60
2022/11/10 10:17:32;;;;;;;5.85;0.50;;;;;;;12.38;100.00;101236.44;5054912;28;20070;-62
2022/11/10 10:20:39;;;;;;;11.55;0.60;;;;;;;12.41;100.00;101233.41;5053104;28;20032;-61
2022/11/10 10:23:13;;;;;;;1.55;0.30;;;;;;;12.46;100.00;101250.66;5025223;28;20418;-61
2022/11/10 10:25:40;;;;;;;9.60;0.77;;;;;;;12.51;100.00;101266.88;5053966;28;20036;-60
2022/11/10 10:28:18;;;;;;;12.13;1.67;;;;;;;12.54;100.00;101269.19;5057689;28;20060;-60
2022/11/10 10:30:43;;;;;;;6.65;0.30;;;;;;;12.57;100.00;101290.09;5058866;28;20033;-57
2022/11/10 10:33:18;;;;;;;8.73;1.58;;;;;;;12.61;100.00;101276.22;5057093;28;20496;-60
2022/11/10 10:35:46;;;;;;;11.55;0.75;;;;;;;12.60;100.00;101268.47;5059398;28;20028;-61
2022/11/10 10:38:25;;;;;;;9.25;1.85;;;;;;;12.56;100.00;101267.16;5055809;28;20025;-62
2022/11/10 10:40:52;;;;;;;4.68;0.55;;;;;;;12.52;100.00;101279.16;5057538;28;20559;-61
2022/11/10 10:43:18;;;;;;;3.80;0.93;;;;;;;12.55;100.00;101270.84;5065304;28;20029;-60
2022/11/10 10:45:43;;;;;;;6.22;0.77;;;;;;;12.62;100.00;101266.41;5064897;28;20033;-62
2022/11/10 10:48:27;;;;;;;10.45;1.08;;;;;;;12.68;100.00;101265.69;5057319;28;20036;-60
2022/11/10 10:50:52;;;;;;;2.78;0.52;;;;;;;12.70;100.00;101260.16;5054201;28;20028;-58
2022/11/10 10:53:23;;;;;;;3.05;0.22;;;;;;;12.71;100.00;101265.31;5065474;28;20488;-56
2022/11/10 10:56:25;;;;;;;5.47;1.13;;;;;;;12.72;100.00;101250.97;5060330;28;20036;-58
2022/11/10 10:58:55;;;;;;;13.63;1.10;;;;;;;12.71;100.00;101244.03;5060478;28;20044;-61
2022/11/10 11:01:30;;;;;;;10.05;0.57;;;;;;;12.76;100.00;101246.94;5064088;28;20669;-60
2022/11/10 11:03:55;;;;;;;1.83;1.33;;;;;;;12.77;100.00;101242.44;5055462;28;20041;-61
2022/11/10 11:06:27;;;;;;;6.15;1.77;;;;;;;12.80;100.00;101226.94;5052872;28;20677;-60
2022/11/10 11:08:59;;;;;;;11.20;1.05;;;;;;;12.81;100.00;101223.25;5067930;28;20370;-58
2022/11/10 11:11:31;;;;;;;4.32;1.13;;;;;;;12.85;100.00;101221.03;5059853;28;20027;-57
2022/11/10 11:14:18;;;;;;;;;;;;;;;12.90;100.00;101225.81;5040395;28;20032;-63
2022/11/10 11:16:53;;;;;;;4.25;0.98;;;;;;;12.93;100.00;101231.56;5060277;28;19920;-60
2022/11/10 11:19:23;;;;;;;2.40;0.55;;;;;;;12.97;100.00;101226.72;5061468;28;20032;-63
2022/11/10 11:22:09;;;;;;;5.43;0.47;;;;;;;12.99;100.00;101219.38;5067932;28;20100;-61
2022/11/10 11:24:56;;;;;;;0.43;0.10;;;;;;;13.03;100.00;101199.31;5058478;28;20028;-55
2022/11/10 11:27:30;;;;;;;5.50;0.40;;;;;;;13.07;100.00;101195.28;5048651;28;20115;-60
2022/11/10 11:30:02;;;;;;;5.78;1.58;;;;;;;13.09;100.00;101214.56;5067142;28;20490;-61
2022/11/10 11:32:45;;;;;;;5.40;0.45;;;;;;;13.11;100.00;101212.50;5055234;28;20191;-60
2022/11/10 11:35:11;;;;;;;5.03;0.55;;;;;;;13.12;100.00;101208.84;5058919;28;20051;-60
2022/11/10 11:38:02;;;;;;;6.38;0.70;;;;;;;13.18;100.00;101194.75;5057398;28;20497;-61